NORTHEAST SUFFOLK  -  Special Weather Statement Special Weather Statement        NORTHERN NASSAU  -  Special Weather Statement Special Weather Statement        NORTHWEST SUFFOLK  -  Special Weather Statement Special Weather Statement        SOUTHEAST SUFFOLK  -  Special Weather Statement Special Weather Statement        SOUTHERN NASSAU  -  Special Weather Statement Special Weather Statement        SOUTHWEST SUFFOLK  -  Special Weather Statement Special Weather Statement      

Active alerts

Northern Nassau
  Details for Northern Nassau Special Weather Statement
Southern Nassau
  Details for Southern Nassau Special Weather Statement
Northwest Suffolk
  Details for Northwest Suffolk Special Weather Statement
Southwest Suffolk
  Details for Southwest Suffolk Special Weather Statement
Northeast Suffolk
  Details for Northeast Suffolk Special Weather Statement
Southeast Suffolk
  Details for Southeast Suffolk Special Weather Statement


WXM80 ListenWXM80 Stop

You find our weather info also at:

UK Metoffice

WeatherCloud

Weather Underground

Northeastern Weather Network

AWEKAS

Citizen Weather Observer Program (CWOP)

HAMweather, WeatherForYou, PWS Weather


Weather Underground History page Text

Daily Summary for March 12, 2017 Units:  Both    English   Metric
« Previous Day
Next Day »
Daily Weekly Monthly Yearly Custom
  High: Low: Average:
Temperature: 31.5 °F /  -0.3 °C 18.5 °F /  -7.5 °C 24.8 °F /  -4 °C
Dew Point: 14.0 °F /  -10 °C 6.6 °F /  -14.1 °C 9.9 °F /  -12.3 °C
Humidity: 69 % 43 % 53 %
Wind Speed: 12.9 mph /  20.8 km/h - 7 mph /  11.3 km/h
Wind Gust: 24.2 mph /  38.9 km/h - -
Wind:- - WNW
Pressure: 30.38 in /  1028.7 hPa 30.21 in /  1022.9 hPa -
Precipitation: 0.00 in /  0 mm    
Historical Graphs
 
 
Tabular Data for March 12, 2017
Time Temperature Dew Point Pressure Wind Wind Speed Wind Gust Humidity Rainfall Rate (Hourly)
00:02 22.2 °F /  -5.4 °C 9.3 °F /  -12.6 °C 30.22 in /  1023.2 hPa WNW 8.1 mph /  13 km/h 12.7 mph /  20.4 km/h 57 % 0.00 in /  0 mm
00:07 22.2 °F /  -5.4 °C 9.7 °F /  -12.4 °C 30.21 in /  1022.9 hPa WNW 7.0 mph /  11.3 km/h 20.7 mph /  33.3 km/h 58 % 0.00 in /  0 mm
00:12 22.2 °F /  -5.4 °C 9.7 °F /  -12.4 °C 30.21 in /  1022.9 hPa WNW 10.8 mph /  17.4 km/h 15.0 mph /  24.1 km/h 58 % 0.00 in /  0 mm
00:17 22.1 °F /  -5.5 °C 8.8 °F /  -12.9 °C 30.21 in /  1022.9 hPa West 11.8 mph /  19 km/h 19.6 mph /  31.5 km/h 56 % 0.00 in /  0 mm
00:22 22.1 °F /  -5.5 °C 9.2 °F /  -12.7 °C 30.21 in /  1022.9 hPa WSW 9.1 mph /  14.6 km/h 16.1 mph /  25.9 km/h 57 % 0.00 in /  0 mm
00:27 22.1 °F /  -5.5 °C 9.9 °F /  -12.3 °C 30.21 in /  1022.9 hPa WNW 8.6 mph /  13.8 km/h 13.0 mph /  20.9 km/h 59 % 0.00 in /  0 mm
00:32 22.0 °F /  -5.6 °C 9.5 °F /  -12.5 °C 30.22 in /  1023.2 hPa WNW 7.4 mph /  11.9 km/h 15.0 mph /  24.1 km/h 58 % 0.00 in /  0 mm
00:37 22.0 °F /  -5.6 °C 9.5 °F /  -12.5 °C 30.23 in /  1023.6 hPa West 9.5 mph /  15.3 km/h 13.8 mph /  22.2 km/h 58 % 0.00 in /  0 mm
00:42 22.0 °F /  -5.6 °C 9.5 °F /  -12.5 °C 30.23 in /  1023.6 hPa WSW 6.7 mph /  10.8 km/h 11.5 mph /  18.5 km/h 58 % 0.00 in /  0 mm
00:47 22.0 °F /  -5.6 °C 9.5 °F /  -12.5 °C 30.22 in /  1023.2 hPa West 5.2 mph /  8.4 km/h 15.0 mph /  24.1 km/h 58 % 0.00 in /  0 mm
00:52 22.0 °F /  -5.6 °C 9.5 °F /  -12.5 °C 30.23 in /  1023.6 hPa NNW 10.4 mph /  16.7 km/h 17.3 mph /  27.8 km/h 58 % 0.00 in /  0 mm
00:57 22.0 °F /  -5.6 °C 9.8 °F /  -12.3 °C 30.23 in /  1023.6 hPa WSW 3.3 mph /  5.3 km/h 11.5 mph /  18.5 km/h 59 % 0.00 in /  0 mm
01:02 22.0 °F /  -5.6 °C 9.8 °F /  -12.3 °C 30.23 in /  1023.6 hPa WNW 4.4 mph /  7.1 km/h 12.7 mph /  20.4 km/h 59 % 0.00 in /  0 mm
01:07 22.0 °F /  -5.6 °C 9.8 °F /  -12.3 °C 30.23 in /  1023.6 hPa WNW 10.1 mph /  16.3 km/h 16.1 mph /  25.9 km/h 59 % 0.00 in /  0 mm
01:12 22.0 °F /  -5.6 °C 10.2 °F /  -12.1 °C 30.23 in /  1023.6 hPa NW 8.4 mph /  13.5 km/h 13.8 mph /  22.2 km/h 60 % 0.00 in /  0 mm
01:17 22.0 °F /  -5.6 °C 10.2 °F /  -12.1 °C 30.23 in /  1023.6 hPa WNW 10.1 mph /  16.3 km/h 19.6 mph /  31.5 km/h 60 % 0.00 in /  0 mm
01:22 22.0 °F /  -5.6 °C 9.8 °F /  -12.3 °C 30.23 in /  1023.6 hPa West 6.2 mph /  10 km/h 16.0 mph /  25.7 km/h 59 % 0.00 in /  0 mm
01:27 22.0 °F /  -5.6 °C 10.2 °F /  -12.1 °C 30.23 in /  1023.6 hPa WNW 9.4 mph /  15.1 km/h 19.6 mph /  31.5 km/h 60 % 0.00 in /  0 mm
01:32 21.9 °F /  -5.6 °C 10.1 °F /  -12.2 °C 30.23 in /  1023.6 hPa West 7.6 mph /  12.2 km/h 11.5 mph /  18.5 km/h 60 % 0.00 in /  0 mm
01:37 21.9 °F /  -5.6 °C 10.5 °F /  -11.9 °C 30.23 in /  1023.6 hPa West 8.2 mph /  13.2 km/h 16.1 mph /  25.9 km/h 61 % 0.00 in /  0 mm
01:42 21.9 °F /  -5.6 °C 10.1 °F /  -12.2 °C 30.23 in /  1023.6 hPa WNW 10.1 mph /  16.3 km/h 19.6 mph /  31.5 km/h 60 % 0.00 in /  0 mm
01:47 21.8 °F /  -5.7 °C 9.7 °F /  -12.4 °C 30.23 in /  1023.6 hPa West 6.2 mph /  10 km/h 15.0 mph /  24.1 km/h 59 % 0.00 in /  0 mm
01:53 21.8 °F /  -5.7 °C 10.0 °F /  -12.2 °C 30.24 in /  1023.9 hPa NW 6.4 mph /  10.3 km/h 10.4 mph /  16.7 km/h 60 % 0.00 in /  0 mm
01:58 21.8 °F /  -5.7 °C 10.0 °F /  -12.2 °C 30.23 in /  1023.6 hPa NW 6.2 mph /  10 km/h 13.8 mph /  22.2 km/h 60 % 0.00 in /  0 mm
03:03 21.7 °F /  -5.7 °C 9.9 °F /  -12.3 °C 30.23 in /  1023.6 hPa WNW 9.0 mph /  14.5 km/h 16.1 mph /  25.9 km/h 60 % 0.00 in /  0 mm
03:08 21.7 °F /  -5.7 °C 9.9 °F /  -12.3 °C 30.24 in /  1023.9 hPa NW 6.7 mph /  10.8 km/h 15.0 mph /  24.1 km/h 60 % 0.00 in /  0 mm
03:13 21.7 °F /  -5.7 °C 9.6 °F /  -12.4 °C 30.23 in /  1023.6 hPa North 11.1 mph /  17.9 km/h 17.3 mph /  27.8 km/h 59 % 0.00 in /  0 mm
03:18 21.6 °F /  -5.8 °C 9.8 °F /  -12.3 °C 30.23 in /  1023.6 hPa West 11.4 mph /  18.3 km/h 19.6 mph /  31.5 km/h 60 % 0.00 in /  0 mm
03:23 21.6 °F /  -5.8 °C 9.5 °F /  -12.5 °C 30.24 in /  1023.9 hPa NW 7.5 mph /  12.1 km/h 18.4 mph /  29.6 km/h 59 % 0.00 in /  0 mm
03:28 21.6 °F /  -5.8 °C 9.5 °F /  -12.5 °C 30.23 in /  1023.6 hPa West 8.8 mph /  14.2 km/h 17.3 mph /  27.8 km/h 59 % 0.00 in /  0 mm
03:33 21.5 °F /  -5.8 °C 9.7 °F /  -12.4 °C 30.23 in /  1023.6 hPa West 8.0 mph /  12.9 km/h 11.5 mph /  18.5 km/h 60 % 0.00 in /  0 mm
03:38 21.5 °F /  -5.8 °C 9.7 °F /  -12.4 °C 30.24 in /  1023.9 hPa West 4.1 mph /  6.6 km/h 10.4 mph /  16.7 km/h 60 % 0.00 in /  0 mm
03:43 21.5 °F /  -5.8 °C 10.5 °F /  -11.9 °C 30.23 in /  1023.6 hPa West 6.7 mph /  10.8 km/h 16.1 mph /  25.9 km/h 62 % 0.00 in /  0 mm
03:48 21.5 °F /  -5.8 °C 10.5 °F /  -11.9 °C 30.23 in /  1023.6 hPa NW 8.4 mph /  13.5 km/h 15.0 mph /  24.1 km/h 62 % 0.00 in /  0 mm
03:53 21.5 °F /  -5.8 °C 10.1 °F /  -12.2 °C 30.24 in /  1023.9 hPa WNW 10.0 mph /  16.1 km/h 15.0 mph /  24.1 km/h 61 % 0.00 in /  0 mm
03:58 21.4 °F /  -5.9 °C 10.0 °F /  -12.2 °C 30.23 in /  1023.6 hPa WNW 7.0 mph /  11.3 km/h 15.0 mph /  24.1 km/h 61 % 0.00 in /  0 mm
04:03 21.4 °F /  -5.9 °C 9.7 °F /  -12.4 °C 30.23 in /  1023.6 hPa West 10.4 mph /  16.7 km/h 15.0 mph /  24.1 km/h 60 % 0.00 in /  0 mm
04:08 21.3 °F /  -5.9 °C 9.6 °F /  -12.4 °C 30.23 in /  1023.6 hPa NW 6.2 mph /  10 km/h 16.1 mph /  25.9 km/h 60 % 0.00 in /  0 mm
04:13 21.3 °F /  -5.9 °C 9.9 °F /  -12.3 °C 30.23 in /  1023.6 hPa WNW 10.2 mph /  16.4 km/h 18.4 mph /  29.6 km/h 61 % 0.00 in /  0 mm
04:18 21.3 °F /  -5.9 °C 9.9 °F /  -12.3 °C 30.23 in /  1023.6 hPa West 4.7 mph /  7.6 km/h 8.1 mph /  13 km/h 61 % 0.00 in /  0 mm
04:23 21.3 °F /  -5.9 °C 9.9 °F /  -12.3 °C 30.23 in /  1023.6 hPa WNW 8.5 mph /  13.7 km/h 16.1 mph /  25.9 km/h 61 % 0.00 in /  0 mm
04:28 21.3 °F /  -5.9 °C 9.9 °F /  -12.3 °C 30.23 in /  1023.6 hPa WNW 7.8 mph /  12.6 km/h 12.7 mph /  20.4 km/h 61 % 0.00 in /  0 mm
04:29 21.3 °F /  -5.9 °C 9.6 °F /  -12.4 °C 30.23 in /  1023.6 hPa West 6.6 mph /  10.6 km/h 13.8 mph /  22.2 km/h 60 % 0.00 in /  0 mm
04:34 21.3 °F /  -5.9 °C 9.6 °F /  -12.4 °C 30.24 in /  1023.9 hPa NW 10.5 mph /  16.9 km/h 19.6 mph /  31.5 km/h 60 % 0.00 in /  0 mm
04:39 21.2 °F /  -6 °C 9.1 °F /  -12.7 °C 30.23 in /  1023.6 hPa West 6.8 mph /  10.9 km/h 24.2 mph /  38.9 km/h 59 % 0.00 in /  0 mm
04:44 21.2 °F /  -6 °C 9.5 °F /  -12.5 °C 30.23 in /  1023.6 hPa WNW 8.5 mph /  13.7 km/h 14.0 mph /  22.5 km/h 60 % 0.00 in /  0 mm
04:50 21.2 °F /  -6 °C 9.5 °F /  -12.5 °C 30.23 in /  1023.6 hPa North 9.0 mph /  14.5 km/h 12.7 mph /  20.4 km/h 60 % 0.00 in /  0 mm
04:55 21.1 °F /  -6.1 °C 9.4 °F /  -12.6 °C 30.24 in /  1023.9 hPa NW 5.8 mph /  9.3 km/h 15.0 mph /  24.1 km/h 60 % 0.00 in /  0 mm
05:00 21.1 °F /  -6.1 °C 9.7 °F /  -12.4 °C 30.24 in /  1023.9 hPa WNW 7.9 mph /  12.7 km/h 18.4 mph /  29.6 km/h 61 % 0.00 in /  0 mm
05:05 21.1 °F /  -6.1 °C 9.7 °F /  -12.4 °C 30.24 in /  1023.9 hPa NW 4.5 mph /  7.2 km/h 9.0 mph /  14.5 km/h 61 % 0.00 in /  0 mm
05:10 21.1 °F /  -6.1 °C 10.1 °F /  -12.2 °C 30.24 in /  1023.9 hPa WNW 5.0 mph /  8 km/h 10.4 mph /  16.7 km/h 62 % 0.00 in /  0 mm
05:15 21.1 °F /  -6.1 °C 10.1 °F /  -12.2 °C 30.24 in /  1023.9 hPa NW 4.7 mph /  7.6 km/h 17.3 mph /  27.8 km/h 62 % 0.00 in /  0 mm
05:20 21.1 °F /  -6.1 °C 10.1 °F /  -12.2 °C 30.25 in /  1024.3 hPa West 8.4 mph /  13.5 km/h 15.0 mph /  24.1 km/h 62 % 0.00 in /  0 mm
05:25 21.1 °F /  -6.1 °C 10.1 °F /  -12.2 °C 30.24 in /  1023.9 hPa SW 7.4 mph /  11.9 km/h 11.5 mph /  18.5 km/h 62 % 0.00 in /  0 mm
05:30 21.0 °F /  -6.1 °C 9.6 °F /  -12.4 °C 30.25 in /  1024.3 hPa NW 6.8 mph /  10.9 km/h 13.0 mph /  20.9 km/h 61 % 0.00 in /  0 mm
05:35 21.0 °F /  -6.1 °C 9.3 °F /  -12.6 °C 30.25 in /  1024.3 hPa NNW 8.4 mph /  13.5 km/h 16.1 mph /  25.9 km/h 60 % 0.00 in /  0 mm
05:40 20.9 °F /  -6.2 °C 9.9 °F /  -12.3 °C 30.25 in /  1024.3 hPa NW 8.8 mph /  14.2 km/h 16.0 mph /  25.7 km/h 62 % 0.00 in /  0 mm
05:45 20.9 °F /  -6.2 °C 9.2 °F /  -12.7 °C 30.25 in /  1024.3 hPa NW 9.9 mph /  15.9 km/h 18.4 mph /  29.6 km/h 60 % 0.00 in /  0 mm
05:50 20.8 °F /  -6.2 °C 9.5 °F /  -12.5 °C 30.25 in /  1024.3 hPa WNW 6.3 mph /  10.1 km/h 11.5 mph /  18.5 km/h 61 % 0.00 in /  0 mm
05:55 20.8 °F /  -6.2 °C 9.1 °F /  -12.7 °C 30.25 in /  1024.3 hPa NW 10.5 mph /  16.9 km/h 16.1 mph /  25.9 km/h 60 % 0.00 in /  0 mm
06:00 20.7 °F /  -6.3 °C 8.6 °F /  -13 °C 30.25 in /  1024.3 hPa WNW 8.0 mph /  12.9 km/h 13.0 mph /  20.9 km/h 59 % 0.00 in /  0 mm
06:06 20.6 °F /  -6.3 °C 8.5 °F /  -13.1 °C 30.25 in /  1024.3 hPa NW 10.2 mph /  16.4 km/h 15.0 mph /  24.1 km/h 59 % 0.00 in /  0 mm
06:11 20.5 °F /  -6.4 °C 8.4 °F /  -13.1 °C 30.25 in /  1024.3 hPa WNW 9.8 mph /  15.8 km/h 16.1 mph /  25.9 km/h 59 % 0.00 in /  0 mm
06:16 20.4 °F /  -6.4 °C 8.3 °F /  -13.2 °C 30.24 in /  1023.9 hPa WNW 6.2 mph /  10 km/h 19.0 mph /  30.6 km/h 59 % 0.00 in /  0 mm
06:21 20.3 °F /  -6.5 °C 8.2 °F /  -13.2 °C 30.24 in /  1023.9 hPa NNW 5.5 mph /  8.9 km/h 11.5 mph /  18.5 km/h 59 % 0.00 in /  0 mm
06:26 20.2 °F /  -6.6 °C 7.8 °F /  -13.4 °C 30.25 in /  1024.3 hPa West 5.8 mph /  9.3 km/h 18.4 mph /  29.6 km/h 58 % 0.00 in /  0 mm
06:31 20.1 °F /  -6.6 °C 7.3 °F /  -13.7 °C 30.25 in /  1024.3 hPa NW 6.6 mph /  10.6 km/h 16.1 mph /  25.9 km/h 57 % 0.00 in /  0 mm
06:36 20.0 °F /  -6.7 °C 7.2 °F /  -13.8 °C 30.25 in /  1024.3 hPa West 4.2 mph /  6.8 km/h 10.4 mph /  16.7 km/h 57 % 0.00 in /  0 mm
06:37 20.0 °F /  -6.7 °C 7.2 °F /  -13.8 °C 30.25 in /  1024.3 hPa NW 5.4 mph /  8.7 km/h 11.5 mph /  18.5 km/h 57 % 0.00 in /  0 mm
06:42 20.0 °F /  -6.7 °C 7.6 °F /  -13.6 °C 30.25 in /  1024.3 hPa North 5.8 mph /  9.3 km/h 10.4 mph /  16.7 km/h 58 % 0.00 in /  0 mm
06:47 20.0 °F /  -6.7 °C 9.1 °F /  -12.7 °C 30.25 in /  1024.3 hPa North 3.2 mph /  5.1 km/h 7.0 mph /  11.3 km/h 62 % 0.00 in /  0 mm
06:52 19.8 °F /  -6.8 °C 9.9 °F /  -12.3 °C 30.26 in /  1024.6 hPa North 6.3 mph /  10.1 km/h 10.4 mph /  16.7 km/h 65 % 0.00 in /  0 mm
06:57 19.6 °F /  -6.9 °C 10.7 °F /  -11.8 °C 30.25 in /  1024.3 hPa North 4.8 mph /  7.7 km/h 10.4 mph /  16.7 km/h 68 % 0.00 in /  0 mm
07:02 19.4 °F /  -7 °C 10.6 °F /  -11.9 °C 30.26 in /  1024.6 hPa North 7.4 mph /  11.9 km/h 9.2 mph /  14.8 km/h 68 % 0.00 in /  0 mm
07:07 19.2 °F /  -7.1 °C 10.4 °F /  -12 °C 30.26 in /  1024.6 hPa NNE 4.8 mph /  7.7 km/h 6.9 mph /  11.1 km/h 68 % 0.00 in /  0 mm
07:12 19.0 °F /  -7.2 °C 10.2 °F /  -12.1 °C 30.26 in /  1024.6 hPa North 4.7 mph /  7.6 km/h 8.1 mph /  13 km/h 68 % 0.00 in /  0 mm
07:17 18.8 °F /  -7.3 °C 10.0 °F /  -12.2 °C 30.26 in /  1024.6 hPa North 2.1 mph /  3.4 km/h 10.4 mph /  16.7 km/h 68 % 0.00 in /  0 mm
07:22 18.7 °F /  -7.4 °C 9.9 °F /  -12.3 °C 30.26 in /  1024.6 hPa NNE 3.8 mph /  6.1 km/h 9.2 mph /  14.8 km/h 68 % 0.00 in /  0 mm
07:27 18.6 °F /  -7.4 °C 10.1 °F /  -12.2 °C 30.26 in /  1024.6 hPa NNW 1.7 mph /  2.7 km/h 4.6 mph /  7.4 km/h 69 % 0.00 in /  0 mm
07:32 18.5 °F /  -7.5 °C 10.0 °F /  -12.2 °C 30.27 in /  1024.9 hPa North 5.0 mph /  8 km/h 6.9 mph /  11.1 km/h 69 % 0.00 in /  0 mm
07:37 18.5 °F /  -7.5 °C 10.0 °F /  -12.2 °C 30.26 in /  1024.6 hPa NW 1.6 mph /  2.6 km/h 4.0 mph /  6.4 km/h 69 % 0.00 in /  0 mm
07:42 18.5 °F /  -7.5 °C 9.7 °F /  -12.4 °C 30.27 in /  1024.9 hPa WNW 3.5 mph /  5.6 km/h 6.9 mph /  11.1 km/h 68 % 0.00 in /  0 mm
07:47 18.7 °F /  -7.4 °C 9.9 °F /  -12.3 °C 30.27 in /  1024.9 hPa North 3.6 mph /  5.8 km/h 4.6 mph /  7.4 km/h 68 % 0.00 in /  0 mm
07:52 18.9 °F /  -7.3 °C 9.7 °F /  -12.4 °C 30.27 in /  1024.9 hPa North 3.1 mph /  5 km/h 5.0 mph /  8 km/h 67 % 0.00 in /  0 mm
07:57 19.1 °F /  -7.2 °C 9.6 °F /  -12.4 °C 30.27 in /  1024.9 hPa North 1.7 mph /  2.7 km/h 7.0 mph /  11.3 km/h 66 % 0.00 in /  0 mm
08:02 19.3 °F /  -7.1 °C 8.4 °F /  -13.1 °C 30.27 in /  1024.9 hPa NW 4.8 mph /  7.7 km/h 11.5 mph /  18.5 km/h 62 % 0.00 in /  0 mm
08:07 19.5 °F /  -6.9 °C 8.2 °F /  -13.2 °C 30.27 in /  1024.9 hPa NNW 4.7 mph /  7.6 km/h 7.0 mph /  11.3 km/h 61 % 0.00 in /  0 mm
08:12 19.8 °F /  -6.8 °C 8.9 °F /  -12.8 °C 30.27 in /  1024.9 hPa NNE 4.3 mph /  6.9 km/h 5.8 mph /  9.3 km/h 62 % 0.00 in /  0 mm
08:17 20.0 °F /  -6.7 °C 8.0 °F /  -13.3 °C 30.27 in /  1024.9 hPa WNW 4.8 mph /  7.7 km/h 8.1 mph /  13 km/h 59 % 0.00 in /  0 mm
08:22 20.3 °F /  -6.5 °C 8.2 °F /  -13.2 °C 30.27 in /  1024.9 hPa NNW 2.4 mph /  3.9 km/h 3.5 mph /  5.6 km/h 59 % 0.00 in /  0 mm
08:27 20.6 °F /  -6.3 °C 8.9 °F /  -12.8 °C 30.27 in /  1024.9 hPa NW 4.4 mph /  7.1 km/h 6.9 mph /  11.1 km/h 60 % 0.00 in /  0 mm
08:32 21.1 °F /  -6.1 °C 9.0 °F /  -12.8 °C 30.27 in /  1024.9 hPa NNW 2.3 mph /  3.7 km/h 5.8 mph /  9.3 km/h 59 % 0.00 in /  0 mm
08:37 21.3 °F /  -5.9 °C 9.6 °F /  -12.4 °C 30.28 in /  1025.3 hPa NW 3.6 mph /  5.8 km/h 6.9 mph /  11.1 km/h 60 % 0.00 in /  0 mm
08:42 21.6 °F /  -5.8 °C 9.5 °F /  -12.5 °C 30.28 in /  1025.3 hPa WNW 3.5 mph /  5.6 km/h 6.0 mph /  9.7 km/h 59 % 0.00 in /  0 mm
08:47 21.8 °F /  -5.7 °C 9.3 °F /  -12.6 °C 30.28 in /  1025.3 hPa North 3.9 mph /  6.3 km/h 6.9 mph /  11.1 km/h 58 % 0.00 in /  0 mm
08:52 21.8 °F /  -5.7 °C 9.3 °F /  -12.6 °C 30.28 in /  1025.3 hPa NW 2.4 mph /  3.9 km/h 6.9 mph /  11.1 km/h 58 % 0.00 in /  0 mm
08:57 21.9 °F /  -5.6 °C 9.4 °F /  -12.6 °C 30.28 in /  1025.3 hPa NW 3.4 mph /  5.5 km/h 4.6 mph /  7.4 km/h 58 % 0.00 in /  0 mm
09:02 22.0 °F /  -5.6 °C 9.1 °F /  -12.7 °C 30.28 in /  1025.3 hPa NW 4.1 mph /  6.6 km/h 6.0 mph /  9.7 km/h 57 % 0.00 in /  0 mm
09:07 22.1 °F /  -5.5 °C 9.9 °F /  -12.3 °C 30.28 in /  1025.3 hPa North 3.7 mph /  6 km/h 6.9 mph /  11.1 km/h 59 % 0.00 in /  0 mm
09:12 22.3 °F /  -5.4 °C 10.1 °F /  -12.2 °C 30.28 in /  1025.3 hPa North 2.1 mph /  3.4 km/h 4.6 mph /  7.4 km/h 59 % 0.00 in /  0 mm
09:17 22.6 °F /  -5.2 °C 10.4 °F /  -12 °C 30.28 in /  1025.3 hPa NW 3.2 mph /  5.1 km/h 5.0 mph /  8 km/h 59 % 0.00 in /  0 mm
09:22 22.7 °F /  -5.2 °C 10.1 °F /  -12.2 °C 30.28 in /  1025.3 hPa North 4.5 mph /  7.2 km/h 6.0 mph /  9.7 km/h 58 % 0.00 in /  0 mm
09:27 23.0 °F /  -5 °C 10.4 °F /  -12 °C 30.28 in /  1025.3 hPa WNW 2.7 mph /  4.3 km/h 4.6 mph /  7.4 km/h 58 % 0.00 in /  0 mm
09:33 23.3 °F /  -4.8 °C 10.7 °F /  -11.8 °C 30.28 in /  1025.3 hPa WNW 3.4 mph /  5.5 km/h 6.0 mph /  9.7 km/h 58 % 0.00 in /  0 mm
09:38 23.4 °F /  -4.8 °C 9.2 °F /  -12.7 °C 30.28 in /  1025.3 hPa WNW 6.1 mph /  9.8 km/h 9.2 mph /  14.8 km/h 54 % 0.00 in /  0 mm
09:43 23.5 °F /  -4.7 °C 10.5 °F /  -11.9 °C 30.28 in /  1025.3 hPa North 3.8 mph /  6.1 km/h 6.0 mph /  9.7 km/h 57 % 0.00 in /  0 mm
09:48 23.7 °F /  -4.6 °C 10.3 °F /  -12.1 °C 30.27 in /  1024.9 hPa North 5.7 mph /  9.2 km/h 7.0 mph /  11.3 km/h 56 % 0.00 in /  0 mm
09:53 23.8 °F /  -4.6 °C 10.8 °F /  -11.8 °C 30.27 in /  1024.9 hPa NNE 3.7 mph /  6 km/h 6.9 mph /  11.1 km/h 57 % 0.00 in /  0 mm
09:58 24.0 °F /  -4.4 °C 11.0 °F /  -11.7 °C 30.27 in /  1024.9 hPa North 2.1 mph /  3.4 km/h 4.6 mph /  7.4 km/h 57 % 0.00 in /  0 mm
10:03 24.0 °F /  -4.4 °C 10.2 °F /  -12.1 °C 30.27 in /  1024.9 hPa North 3.0 mph /  4.8 km/h 9.0 mph /  14.5 km/h 55 % 0.00 in /  0 mm
10:08 24.1 °F /  -4.4 °C 11.0 °F /  -11.7 °C 30.27 in /  1024.9 hPa North 3.0 mph /  4.8 km/h 6.0 mph /  9.7 km/h 57 % 0.00 in /  0 mm
10:13 24.0 °F /  -4.4 °C 9.7 °F /  -12.4 °C 30.27 in /  1024.9 hPa NNW 2.0 mph /  3.2 km/h 9.0 mph /  14.5 km/h 54 % 0.00 in /  0 mm
10:18 24.1 °F /  -4.4 °C 10.6 °F /  -11.9 °C 30.27 in /  1024.9 hPa NW 4.3 mph /  6.9 km/h 5.8 mph /  9.3 km/h 56 % 0.00 in /  0 mm
10:23 24.4 °F /  -4.2 °C 10.5 °F /  -11.9 °C 30.28 in /  1025.3 hPa North 4.6 mph /  7.4 km/h 8.1 mph /  13 km/h 55 % 0.00 in /  0 mm
10:28 24.9 °F /  -3.9 °C 11.0 °F /  -11.7 °C 30.28 in /  1025.3 hPa NW 2.4 mph /  3.9 km/h 8.1 mph /  13 km/h 55 % 0.00 in /  0 mm
10:33 25.6 °F /  -3.6 °C 10.8 °F /  -11.8 °C 30.28 in /  1025.3 hPa NNE 4.8 mph /  7.7 km/h 7.0 mph /  11.3 km/h 53 % 0.00 in /  0 mm
10:38 26.1 °F /  -3.3 °C 11.3 °F /  -11.5 °C 30.27 in /  1024.9 hPa NW 2.8 mph /  4.5 km/h 4.6 mph /  7.4 km/h 53 % 0.00 in /  0 mm
10:44 26.5 °F /  -3.1 °C 10.8 °F /  -11.8 °C 30.28 in /  1025.3 hPa NNW 3.6 mph /  5.8 km/h 8.1 mph /  13 km/h 51 % 0.00 in /  0 mm
10:49 26.6 °F /  -3 °C 10.4 °F /  -12 °C 30.27 in /  1024.9 hPa WNW 3.9 mph /  6.3 km/h 6.9 mph /  11.1 km/h 50 % 0.00 in /  0 mm
10:59 26.7 °F /  -2.9 °C 10.1 °F /  -12.2 °C 30.27 in /  1024.9 hPa NNW 4.0 mph /  6.4 km/h 9.0 mph /  14.5 km/h 49 % 0.00 in /  0 mm
13:32 30.1 °F /  -1.1 °C 11.8 °F /  -11.2 °C 30.25 in /  1024.3 hPa NW 6.5 mph /  10.5 km/h 17.3 mph /  27.8 km/h 46 % 0.00 in /  0 mm
13:37 30.3 °F /  -0.9 °C 12.0 °F /  -11.1 °C 30.24 in /  1023.9 hPa West 5.6 mph /  9 km/h 12.7 mph /  20.4 km/h 46 % 0.00 in /  0 mm
13:42 30.4 °F /  -0.9 °C 11.6 °F /  -11.3 °C 30.24 in /  1023.9 hPa WNW 9.4 mph /  15.1 km/h 13.8 mph /  22.2 km/h 45 % 0.00 in /  0 mm
13:46 30.5 °F /  -0.8 °C 11.7 °F /  -11.3 °C 30.23 in /  1023.6 hPa NNW 10.0 mph /  16.1 km/h 12.0 mph /  19.3 km/h 45 % 0.00 in /  0 mm
13:47 30.5 °F /  -0.8 °C 12.2 °F /  -11 °C 30.23 in /  1023.6 hPa NW 6.8 mph /  10.9 km/h 16.1 mph /  25.9 km/h 46 % 0.00 in /  0 mm
13:52 30.7 °F /  -0.7 °C 12.3 °F /  -10.9 °C 30.23 in /  1023.6 hPa NNW 9.7 mph /  15.6 km/h 11.5 mph /  18.5 km/h 46 % 0.00 in /  0 mm
13:57 30.7 °F /  -0.7 °C 11.3 °F /  -11.5 °C 30.23 in /  1023.6 hPa West 10.5 mph /  16.9 km/h 17.3 mph /  27.8 km/h 44 % 0.00 in /  0 mm
14:02 30.4 °F /  -0.9 °C 11.1 °F /  -11.6 °C 30.23 in /  1023.6 hPa WNW 5.5 mph /  8.9 km/h 11.5 mph /  18.5 km/h 44 % 0.00 in /  0 mm
14:07 30.3 °F /  -0.9 °C 12.0 °F /  -11.1 °C 30.23 in /  1023.6 hPa SW 7.5 mph /  12.1 km/h 12.7 mph /  20.4 km/h 46 % 0.00 in /  0 mm
14:12 30.3 °F /  -0.9 °C 11.0 °F /  -11.7 °C 30.23 in /  1023.6 hPa West 5.9 mph /  9.5 km/h 17.3 mph /  27.8 km/h 44 % 0.00 in /  0 mm
14:17 30.2 °F /  -1 °C 10.4 °F /  -12 °C 30.23 in /  1023.6 hPa West 7.1 mph /  11.4 km/h 15.0 mph /  24.1 km/h 43 % 0.00 in /  0 mm
14:22 30.4 °F /  -0.9 °C 12.1 °F /  -11.1 °C 30.23 in /  1023.6 hPa West 5.4 mph /  8.7 km/h 9.2 mph /  14.8 km/h 46 % 0.00 in /  0 mm
14:27 30.8 °F /  -0.7 °C 12.4 °F /  -10.9 °C 30.23 in /  1023.6 hPa WNW 5.5 mph /  8.9 km/h 16.1 mph /  25.9 km/h 46 % 0.00 in /  0 mm
14:32 31.1 °F /  -0.5 °C 12.7 °F /  -10.7 °C 30.23 in /  1023.6 hPa West 5.5 mph /  8.9 km/h 10.4 mph /  16.7 km/h 46 % 0.00 in /  0 mm
14:37 31.1 °F /  -0.5 °C 12.2 °F /  -11 °C 30.22 in /  1023.2 hPa WNW 5.6 mph /  9 km/h 11.5 mph /  18.5 km/h 45 % 0.00 in /  0 mm
14:42 31.1 °F /  -0.5 °C 12.2 °F /  -11 °C 30.22 in /  1023.2 hPa West 6.8 mph /  10.9 km/h 17.3 mph /  27.8 km/h 45 % 0.00 in /  0 mm
14:47 31.5 °F /  -0.3 °C 14.0 °F /  -10 °C 30.22 in /  1023.2 hPa West 6.5 mph /  10.5 km/h 14.0 mph /  22.5 km/h 48 % 0.00 in /  0 mm
14:52 31.5 °F /  -0.3 °C 13.1 °F /  -10.5 °C 30.22 in /  1023.2 hPa NNW 7.1 mph /  11.4 km/h 15.0 mph /  24.1 km/h 46 % 0.00 in /  0 mm
14:57 31.2 °F /  -0.4 °C 12.8 °F /  -10.7 °C 30.22 in /  1023.2 hPa West 9.5 mph /  15.3 km/h 19.6 mph /  31.5 km/h 46 % 0.00 in /  0 mm
15:02 31.2 °F /  -0.4 °C 12.3 °F /  -10.9 °C 30.22 in /  1023.2 hPa SW 6.1 mph /  9.8 km/h 11.5 mph /  18.5 km/h 45 % 0.00 in /  0 mm
15:07 31.2 °F /  -0.4 °C 11.8 °F /  -11.2 °C 30.22 in /  1023.2 hPa West 3.4 mph /  5.5 km/h 10.4 mph /  16.7 km/h 44 % 0.00 in /  0 mm
15:12 31.3 °F /  -0.4 °C 11.9 °F /  -11.2 °C 30.22 in /  1023.2 hPa WNW 7.8 mph /  12.6 km/h 11.5 mph /  18.5 km/h 44 % 0.00 in /  0 mm
15:17 31.3 °F /  -0.4 °C 11.4 °F /  -11.4 °C 30.22 in /  1023.2 hPa NW 7.8 mph /  12.6 km/h 11.5 mph /  18.5 km/h 43 % 0.00 in /  0 mm
15:22 31.3 °F /  -0.4 °C 11.9 °F /  -11.2 °C 30.22 in /  1023.2 hPa WSW 5.6 mph /  9 km/h 11.5 mph /  18.5 km/h 44 % 0.00 in /  0 mm
15:28 31.2 °F /  -0.4 °C 12.3 °F /  -10.9 °C 30.22 in /  1023.2 hPa NW 11.1 mph /  17.9 km/h 18.0 mph /  29 km/h 45 % 0.00 in /  0 mm
15:33 31.0 °F /  -0.6 °C 11.6 °F /  -11.3 °C 30.22 in /  1023.2 hPa West 5.2 mph /  8.4 km/h 9.2 mph /  14.8 km/h 44 % 0.00 in /  0 mm
15:38 31.0 °F /  -0.6 °C 12.1 °F /  -11.1 °C 30.22 in /  1023.2 hPa WNW 7.2 mph /  11.6 km/h 12.7 mph /  20.4 km/h 45 % 0.00 in /  0 mm
15:43 30.9 °F /  -0.6 °C 12.0 °F /  -11.1 °C 30.22 in /  1023.2 hPa West 8.0 mph /  12.9 km/h 17.0 mph /  27.4 km/h 45 % 0.00 in /  0 mm
15:48 30.7 °F /  -0.7 °C 11.8 °F /  -11.2 °C 30.22 in /  1023.2 hPa WNW 9.0 mph /  14.5 km/h 18.0 mph /  29 km/h 45 % 0.00 in /  0 mm
15:53 30.7 °F /  -0.7 °C 12.8 °F /  -10.7 °C 30.22 in /  1023.2 hPa WNW 8.0 mph /  12.9 km/h 17.0 mph /  27.4 km/h 47 % 0.00 in /  0 mm
15:58 30.6 °F /  -0.8 °C 12.2 °F /  -11 °C 30.22 in /  1023.2 hPa WNW 7.9 mph /  12.7 km/h 18.4 mph /  29.6 km/h 46 % 0.00 in /  0 mm
16:03 30.3 °F /  -0.9 °C 10.4 °F /  -12 °C 30.22 in /  1023.2 hPa NW 10.6 mph /  17.1 km/h 20.7 mph /  33.3 km/h 43 % 0.00 in /  0 mm
16:08 30.1 °F /  -1.1 °C 10.8 °F /  -11.8 °C 30.22 in /  1023.2 hPa WNW 10.6 mph /  17.1 km/h 17.3 mph /  27.8 km/h 44 % 0.00 in /  0 mm
16:13 29.9 °F /  -1.2 °C 11.1 °F /  -11.6 °C 30.22 in /  1023.2 hPa West 11.8 mph /  19 km/h 16.1 mph /  25.9 km/h 45 % 0.00 in /  0 mm
16:18 29.7 °F /  -1.3 °C 10.9 °F /  -11.7 °C 30.23 in /  1023.6 hPa WNW 10.2 mph /  16.4 km/h 18.4 mph /  29.6 km/h 45 % 0.00 in /  0 mm
16:23 29.6 °F /  -1.3 °C 10.8 °F /  -11.8 °C 30.22 in /  1023.2 hPa NW 5.9 mph /  9.5 km/h 13.8 mph /  22.2 km/h 45 % 0.00 in /  0 mm
16:28 29.6 °F /  -1.3 °C 10.8 °F /  -11.8 °C 30.22 in /  1023.2 hPa NW 5.8 mph /  9.3 km/h 17.3 mph /  27.8 km/h 45 % 0.00 in /  0 mm
16:33 29.6 °F /  -1.3 °C 11.3 °F /  -11.5 °C 30.22 in /  1023.2 hPa West 6.9 mph /  11.1 km/h 17.0 mph /  27.4 km/h 46 % 0.00 in /  0 mm
16:38 29.5 °F /  -1.4 °C 10.7 °F /  -11.8 °C 30.22 in /  1023.2 hPa WNW 7.0 mph /  11.3 km/h 17.0 mph /  27.4 km/h 45 % 0.00 in /  0 mm
16:43 29.5 °F /  -1.4 °C 11.2 °F /  -11.6 °C 30.22 in /  1023.2 hPa NW 9.6 mph /  15.4 km/h 16.1 mph /  25.9 km/h 46 % 0.00 in /  0 mm
16:48 29.5 °F /  -1.4 °C 11.2 °F /  -11.6 °C 30.22 in /  1023.2 hPa WNW 6.3 mph /  10.1 km/h 9.2 mph /  14.8 km/h 46 % 0.00 in /  0 mm
16:53 29.5 °F /  -1.4 °C 11.2 °F /  -11.6 °C 30.22 in /  1023.2 hPa SSW 6.1 mph /  9.8 km/h 11.5 mph /  18.5 km/h 46 % 0.00 in /  0 mm
16:58 29.5 °F /  -1.4 °C 11.2 °F /  -11.6 °C 30.22 in /  1023.2 hPa NW 5.0 mph /  8 km/h 13.8 mph /  22.2 km/h 46 % 0.00 in /  0 mm
17:03 29.5 °F /  -1.4 °C 10.7 °F /  -11.8 °C 30.22 in /  1023.2 hPa WNW 7.5 mph /  12.1 km/h 11.5 mph /  18.5 km/h 45 % 0.00 in /  0 mm
17:06 29.4 °F /  -1.4 °C 10.6 °F /  -11.9 °C 30.22 in /  1023.2 hPa WNW 6.5 mph /  10.5 km/h 11.5 mph /  18.5 km/h 45 % 0.00 in /  0 mm
17:11 29.4 °F /  -1.4 °C 12.1 °F /  -11.1 °C 30.22 in /  1023.2 hPa WNW 8.6 mph /  13.8 km/h 11.5 mph /  18.5 km/h 48 % 0.00 in /  0 mm
17:16 29.3 °F /  -1.5 °C 10.6 °F /  -11.9 °C 30.22 in /  1023.2 hPa WSW 9.1 mph /  14.6 km/h 11.5 mph /  18.5 km/h 45 % 0.00 in /  0 mm
17:21 29.1 °F /  -1.6 °C 11.4 °F /  -11.4 °C 30.22 in /  1023.2 hPa West 6.7 mph /  10.8 km/h 10.4 mph /  16.7 km/h 47 % 0.00 in /  0 mm
17:26 29.0 °F /  -1.7 °C 11.3 °F /  -11.5 °C 30.22 in /  1023.2 hPa West 9.5 mph /  15.3 km/h 13.8 mph /  22.2 km/h 47 % 0.00 in /  0 mm
17:31 28.9 °F /  -1.7 °C 10.7 °F /  -11.8 °C 30.22 in /  1023.2 hPa NW 7.2 mph /  11.6 km/h 12.7 mph /  20.4 km/h 46 % 0.00 in /  0 mm
17:36 28.8 °F /  -1.8 °C 11.1 °F /  -11.6 °C 30.22 in /  1023.2 hPa West 10.9 mph /  17.5 km/h 20.7 mph /  33.3 km/h 47 % 0.00 in /  0 mm
17:41 28.8 °F /  -1.8 °C 11.1 °F /  -11.6 °C 30.22 in /  1023.2 hPa WNW 7.0 mph /  11.3 km/h 15.0 mph /  24.1 km/h 47 % 0.00 in /  0 mm
17:46 28.7 °F /  -1.8 °C 10.5 °F /  -11.9 °C 30.23 in /  1023.6 hPa WNW 11.7 mph /  18.8 km/h 19.6 mph /  31.5 km/h 46 % 0.00 in /  0 mm
17:51 28.6 °F /  -1.9 °C 10.4 °F /  -12 °C 30.23 in /  1023.6 hPa NW 9.3 mph /  15 km/h 16.1 mph /  25.9 km/h 46 % 0.00 in /  0 mm
17:56 28.5 °F /  -1.9 °C 11.3 °F /  -11.5 °C 30.23 in /  1023.6 hPa NW 6.6 mph /  10.6 km/h 11.5 mph /  18.5 km/h 48 % 0.00 in /  0 mm
18:01 28.4 °F /  -2 °C 11.2 °F /  -11.6 °C 30.24 in /  1023.9 hPa North 8.4 mph /  13.5 km/h 15.0 mph /  24.1 km/h 48 % 0.00 in /  0 mm
18:06 28.4 °F /  -2 °C 11.2 °F /  -11.6 °C 30.24 in /  1023.9 hPa NNW 3.3 mph /  5.3 km/h 11.5 mph /  18.5 km/h 48 % 0.00 in /  0 mm
18:12 28.3 °F /  -2.1 °C 10.6 °F /  -11.9 °C 30.24 in /  1023.9 hPa WNW 9.2 mph /  14.8 km/h 18.0 mph /  29 km/h 47 % 0.00 in /  0 mm
18:17 28.2 °F /  -2.1 °C 10.5 °F /  -11.9 °C 30.25 in /  1024.3 hPa WNW 8.8 mph /  14.2 km/h 10.4 mph /  16.7 km/h 47 % 0.00 in /  0 mm
18:22 28.1 °F /  -2.2 °C 10.9 °F /  -11.7 °C 30.24 in /  1023.9 hPa North 9.7 mph /  15.6 km/h 12.0 mph /  19.3 km/h 48 % 0.00 in /  0 mm
18:27 28.0 °F /  -2.2 °C 10.3 °F /  -12.1 °C 30.24 in /  1023.9 hPa NNW 9.7 mph /  15.6 km/h 17.3 mph /  27.8 km/h 47 % 0.00 in /  0 mm
18:32 28.0 °F /  -2.2 °C 10.3 °F /  -12.1 °C 30.25 in /  1024.3 hPa WNW 10.0 mph /  16.1 km/h 19.6 mph /  31.5 km/h 47 % 0.00 in /  0 mm
18:37 27.9 °F /  -2.3 °C 9.8 °F /  -12.3 °C 30.25 in /  1024.3 hPa WNW 9.9 mph /  15.9 km/h 16.1 mph /  25.9 km/h 46 % 0.00 in /  0 mm
18:42 27.8 °F /  -2.3 °C 9.7 °F /  -12.4 °C 30.25 in /  1024.3 hPa WNW 8.1 mph /  13 km/h 16.1 mph /  25.9 km/h 46 % 0.00 in /  0 mm
18:47 27.7 °F /  -2.4 °C 9.6 °F /  -12.4 °C 30.26 in /  1024.6 hPa NW 9.5 mph /  15.3 km/h 18.4 mph /  29.6 km/h 46 % 0.00 in /  0 mm
18:49 27.7 °F /  -2.4 °C 10.1 °F /  -12.2 °C 30.26 in /  1024.6 hPa WNW 6.3 mph /  10.1 km/h 15.0 mph /  24.1 km/h 47 % 0.00 in /  0 mm
18:52 27.6 °F /  -2.4 °C 10.0 °F /  -12.2 °C 30.26 in /  1024.6 hPa WNW 8.9 mph /  14.3 km/h 20.0 mph /  32.2 km/h 47 % 0.00 in /  0 mm
18:57 27.6 °F /  -2.4 °C 10.0 °F /  -12.2 °C 30.26 in /  1024.6 hPa NW 7.1 mph /  11.4 km/h 9.2 mph /  14.8 km/h 47 % 0.00 in /  0 mm
18:59 27.5 °F /  -2.5 °C 9.9 °F /  -12.3 °C 30.26 in /  1024.6 hPa West 8.2 mph /  13.2 km/h 17.3 mph /  27.8 km/h 47 % 0.00 in /  0 mm
19:03 27.5 °F /  -2.5 °C 9.4 °F /  -12.6 °C 30.26 in /  1024.6 hPa WNW 8.3 mph /  13.4 km/h 17.3 mph /  27.8 km/h 46 % 0.00 in /  0 mm
19:08 27.4 °F /  -2.6 °C 9.8 °F /  -12.3 °C 30.26 in /  1024.6 hPa WNW 8.0 mph /  12.9 km/h 15.0 mph /  24.1 km/h 47 % 0.00 in /  0 mm
19:13 27.4 °F /  -2.6 °C 10.7 °F /  -11.8 °C 30.27 in /  1024.9 hPa NW 7.2 mph /  11.6 km/h 13.0 mph /  20.9 km/h 49 % 0.00 in /  0 mm
19:18 27.3 °F /  -2.6 °C 9.7 °F /  -12.4 °C 30.27 in /  1024.9 hPa WNW 8.0 mph /  12.9 km/h 12.0 mph /  19.3 km/h 47 % 0.00 in /  0 mm
19:23 27.2 °F /  -2.7 °C 9.6 °F /  -12.4 °C 30.27 in /  1024.9 hPa NW 11.0 mph /  17.7 km/h 19.6 mph /  31.5 km/h 47 % 0.00 in /  0 mm
19:28 27.2 °F /  -2.7 °C 10.1 °F /  -12.2 °C 30.27 in /  1024.9 hPa WNW 12.2 mph /  19.6 km/h 19.6 mph /  31.5 km/h 48 % 0.00 in /  0 mm
19:33 27.2 °F /  -2.7 °C 9.6 °F /  -12.4 °C 30.28 in /  1025.3 hPa NW 4.6 mph /  7.4 km/h 18.4 mph /  29.6 km/h 47 % 0.00 in /  0 mm
19:38 27.1 °F /  -2.7 °C 9.5 °F /  -12.5 °C 30.28 in /  1025.3 hPa NW 7.7 mph /  12.4 km/h 16.1 mph /  25.9 km/h 47 % 0.00 in /  0 mm
19:43 27.1 °F /  -2.7 °C 10.0 °F /  -12.2 °C 30.28 in /  1025.3 hPa NW 6.0 mph /  9.7 km/h 12.0 mph /  19.3 km/h 48 % 0.00 in /  0 mm
19:48 27.0 °F /  -2.8 °C 9.4 °F /  -12.6 °C 30.29 in /  1025.6 hPa NW 8.0 mph /  12.9 km/h 18.0 mph /  29 km/h 47 % 0.00 in /  0 mm
19:53 26.9 °F /  -2.8 °C 9.3 °F /  -12.6 °C 30.29 in /  1025.6 hPa NW 9.0 mph /  14.5 km/h 18.0 mph /  29 km/h 47 % 0.00 in /  0 mm
19:58 26.8 °F /  -2.9 °C 9.2 °F /  -12.7 °C 30.29 in /  1025.6 hPa NNW 9.1 mph /  14.6 km/h 16.1 mph /  25.9 km/h 47 % 0.00 in /  0 mm
20:03 26.7 °F /  -2.9 °C 9.6 °F /  -12.4 °C 30.30 in /  1026 hPa WNW 9.0 mph /  14.5 km/h 18.4 mph /  29.6 km/h 48 % 0.00 in /  0 mm
20:08 26.7 °F /  -2.9 °C 10.1 °F /  -12.2 °C 30.30 in /  1026 hPa WNW 9.9 mph /  15.9 km/h 15.0 mph /  24.1 km/h 49 % 0.00 in /  0 mm
20:13 26.7 °F /  -2.9 °C 10.1 °F /  -12.2 °C 30.31 in /  1026.3 hPa NW 7.2 mph /  11.6 km/h 12.7 mph /  20.4 km/h 49 % 0.00 in /  0 mm
20:18 26.6 °F /  -3 °C 9.1 °F /  -12.7 °C 30.31 in /  1026.3 hPa WNW 9.8 mph /  15.8 km/h 15.0 mph /  24.1 km/h 47 % 0.00 in /  0 mm
20:23 26.4 °F /  -3.1 °C 9.8 °F /  -12.3 °C 30.31 in /  1026.3 hPa NW 6.2 mph /  10 km/h 11.5 mph /  18.5 km/h 49 % 0.00 in /  0 mm
20:28 26.3 °F /  -3.2 °C 9.2 °F /  -12.7 °C 30.31 in /  1026.3 hPa NNW 8.6 mph /  13.8 km/h 14.0 mph /  22.5 km/h 48 % 0.00 in /  0 mm
20:33 26.2 °F /  -3.2 °C 9.2 °F /  -12.7 °C 30.32 in /  1026.6 hPa North 8.6 mph /  13.8 km/h 18.4 mph /  29.6 km/h 48 % 0.00 in /  0 mm
20:38 26.2 °F /  -3.2 °C 10.1 °F /  -12.2 °C 30.32 in /  1026.6 hPa NW 7.6 mph /  12.2 km/h 11.5 mph /  18.5 km/h 50 % 0.00 in /  0 mm
20:43 26.1 °F /  -3.3 °C 9.1 °F /  -12.7 °C 30.32 in /  1026.6 hPa WNW 9.9 mph /  15.9 km/h 15.0 mph /  24.1 km/h 48 % 0.00 in /  0 mm
20:48 26.0 °F /  -3.3 °C 9.4 °F /  -12.6 °C 30.33 in /  1027 hPa WNW 7.3 mph /  11.7 km/h 17.3 mph /  27.8 km/h 49 % 0.00 in /  0 mm
20:53 25.9 °F /  -3.4 °C 9.3 °F /  -12.6 °C 30.33 in /  1027 hPa WNW 6.8 mph /  10.9 km/h 11.5 mph /  18.5 km/h 49 % 0.00 in /  0 mm
20:58 25.9 °F /  -3.4 °C 8.9 °F /  -12.8 °C 30.33 in /  1027 hPa NW 6.0 mph /  9.7 km/h 10.4 mph /  16.7 km/h 48 % 0.00 in /  0 mm
21:03 25.8 °F /  -3.4 °C 8.8 °F /  -12.9 °C 30.34 in /  1027.3 hPa NNW 7.6 mph /  12.2 km/h 13.8 mph /  22.2 km/h 48 % 0.00 in /  0 mm
21:08 25.8 °F /  -3.4 °C 9.2 °F /  -12.7 °C 30.33 in /  1027 hPa NNW 8.4 mph /  13.5 km/h 13.8 mph /  22.2 km/h 49 % 0.00 in /  0 mm
21:13 25.7 °F /  -3.5 °C 10.0 °F /  -12.2 °C 30.33 in /  1027 hPa NNW 7.2 mph /  11.6 km/h 11.5 mph /  18.5 km/h 51 % 0.00 in /  0 mm
21:18 25.7 °F /  -3.5 °C 9.2 °F /  -12.7 °C 30.33 in /  1027 hPa NNW 9.1 mph /  14.6 km/h 16.1 mph /  25.9 km/h 49 % 0.00 in /  0 mm
21:23 25.6 °F /  -3.6 °C 9.1 °F /  -12.7 °C 30.34 in /  1027.3 hPa WNW 7.0 mph /  11.3 km/h 15.0 mph /  24.1 km/h 49 % 0.00 in /  0 mm
21:28 25.5 °F /  -3.6 °C 8.0 °F /  -13.3 °C 30.34 in /  1027.3 hPa West 8.4 mph /  13.5 km/h 18.4 mph /  29.6 km/h 47 % 0.00 in /  0 mm
21:34 25.4 °F /  -3.7 °C 8.4 °F /  -13.1 °C 30.34 in /  1027.3 hPa NNW 8.2 mph /  13.2 km/h 12.7 mph /  20.4 km/h 48 % 0.00 in /  0 mm
21:39 25.4 °F /  -3.7 °C 9.3 °F /  -12.6 °C 30.34 in /  1027.3 hPa NW 6.5 mph /  10.5 km/h 12.0 mph /  19.3 km/h 50 % 0.00 in /  0 mm
21:44 25.4 °F /  -3.7 °C 8.9 °F /  -12.8 °C 30.34 in /  1027.3 hPa NW 6.6 mph /  10.6 km/h 16.1 mph /  25.9 km/h 49 % 0.00 in /  0 mm
21:49 25.4 °F /  -3.7 °C 9.8 °F /  -12.3 °C 30.34 in /  1027.3 hPa WNW 12.9 mph /  20.8 km/h 20.0 mph /  32.2 km/h 51 % 0.00 in /  0 mm
21:54 25.3 °F /  -3.7 °C 8.3 °F /  -13.2 °C 30.34 in /  1027.3 hPa NNW 9.9 mph /  15.9 km/h 15.0 mph /  24.1 km/h 48 % 0.00 in /  0 mm
21:59 25.2 °F /  -3.8 °C 7.8 °F /  -13.4 °C 30.34 in /  1027.3 hPa WNW 9.5 mph /  15.3 km/h 14.0 mph /  22.5 km/h 47 % 0.00 in /  0 mm
22:04 25.1 °F /  -3.8 °C 8.6 °F /  -13 °C 30.34 in /  1027.3 hPa West 7.2 mph /  11.6 km/h 10.4 mph /  16.7 km/h 49 % 0.00 in /  0 mm
22:09 25.0 °F /  -3.9 °C 8.5 °F /  -13.1 °C 30.34 in /  1027.3 hPa WNW 5.9 mph /  9.5 km/h 12.7 mph /  20.4 km/h 49 % 0.00 in /  0 mm
22:14 24.9 °F /  -3.9 °C 8.0 °F /  -13.3 °C 30.35 in /  1027.7 hPa NNW 6.2 mph /  10 km/h 11.5 mph /  18.5 km/h 48 % 0.00 in /  0 mm
22:19 24.9 °F /  -3.9 °C 8.0 °F /  -13.3 °C 30.35 in /  1027.7 hPa WNW 7.7 mph /  12.4 km/h 13.8 mph /  22.2 km/h 48 % 0.00 in /  0 mm
22:24 24.8 °F /  -4 °C 8.8 °F /  -12.9 °C 30.35 in /  1027.7 hPa NNW 4.8 mph /  7.7 km/h 12.7 mph /  20.4 km/h 50 % 0.00 in /  0 mm
22:29 24.8 °F /  -4 °C 8.8 °F /  -12.9 °C 30.36 in /  1028 hPa NNW 8.9 mph /  14.3 km/h 16.1 mph /  25.9 km/h 50 % 0.00 in /  0 mm
22:34 24.8 °F /  -4 °C 8.8 °F /  -12.9 °C 30.36 in /  1028 hPa NW 9.1 mph /  14.6 km/h 15.0 mph /  24.1 km/h 50 % 0.00 in /  0 mm
22:39 24.8 °F /  -4 °C 8.3 °F /  -13.2 °C 30.36 in /  1028 hPa NW 6.9 mph /  11.1 km/h 11.5 mph /  18.5 km/h 49 % 0.00 in /  0 mm
22:44 24.7 °F /  -4.1 °C 9.1 °F /  -12.7 °C 30.36 in /  1028 hPa NW 6.3 mph /  10.1 km/h 11.5 mph /  18.5 km/h 51 % 0.00 in /  0 mm
22:49 24.7 °F /  -4.1 °C 7.8 °F /  -13.4 °C 30.36 in /  1028 hPa NW 8.7 mph /  14 km/h 15.0 mph /  24.1 km/h 48 % 0.00 in /  0 mm
22:54 24.5 °F /  -4.2 °C 6.6 °F /  -14.1 °C 30.36 in /  1028 hPa NW 7.4 mph /  11.9 km/h 13.8 mph /  22.2 km/h 46 % 0.00 in /  0 mm
22:59 24.4 °F /  -4.2 °C 7.9 °F /  -13.4 °C 30.36 in /  1028 hPa North 5.1 mph /  8.2 km/h 11.5 mph /  18.5 km/h 49 % 0.00 in /  0 mm
23:05 24.3 °F /  -4.3 °C 7.9 °F /  -13.4 °C 30.36 in /  1028 hPa NNW 6.3 mph /  10.1 km/h 12.7 mph /  20.4 km/h 49 % 0.00 in /  0 mm
23:10 24.2 °F /  -4.3 °C 7.8 °F /  -13.4 °C 30.36 in /  1028 hPa WNW 7.5 mph /  12.1 km/h 17.3 mph /  27.8 km/h 49 % 0.00 in /  0 mm
23:15 24.1 °F /  -4.4 °C 8.1 °F /  -13.3 °C 30.36 in /  1028 hPa NNW 3.5 mph /  5.6 km/h 6.9 mph /  11.1 km/h 50 % 0.00 in /  0 mm
23:20 24.0 °F /  -4.4 °C 8.9 °F /  -12.8 °C 30.36 in /  1028 hPa NNW 8.4 mph /  13.5 km/h 17.3 mph /  27.8 km/h 52 % 0.00 in /  0 mm
23:25 24.0 °F /  -4.4 °C 8.5 °F /  -13.1 °C 30.37 in /  1028.3 hPa NW 6.6 mph /  10.6 km/h 18.0 mph /  29 km/h 51 % 0.00 in /  0 mm
23:30 23.8 °F /  -4.6 °C 7.4 °F /  -13.7 °C 30.37 in /  1028.3 hPa NNW 8.3 mph /  13.4 km/h 17.3 mph /  27.8 km/h 49 % 0.00 in /  0 mm
23:35 23.7 °F /  -4.6 °C 7.3 °F /  -13.7 °C 30.37 in /  1028.3 hPa NNW 8.4 mph /  13.5 km/h 17.3 mph /  27.8 km/h 49 % 0.00 in /  0 mm
23:40 23.5 °F /  -4.7 °C 7.6 °F /  -13.6 °C 30.38 in /  1028.7 hPa NW 7.3 mph /  11.7 km/h 13.8 mph /  22.2 km/h 50 % 0.00 in /  0 mm
23:45 23.5 °F /  -4.7 °C 7.1 °F /  -13.8 °C 30.38 in /  1028.7 hPa NNW 10.6 mph /  17.1 km/h 17.3 mph /  27.8 km/h 49 % 0.00 in /  0 mm
23:50 23.4 °F /  -4.8 °C 7.0 °F /  -13.9 °C 30.38 in /  1028.7 hPa WNW 7.1 mph /  11.4 km/h 15.0 mph /  24.1 km/h 49 % 0.00 in /  0 mm
23:55 23.3 °F /  -4.8 °C 7.4 °F /  -13.7 °C 30.38 in /  1028.7 hPa NNW 6.5 mph /  10.5 km/h 10.4 mph /  16.7 km/h 50 % 0.00 in /  0 mm
Crab Meadow Weather
Compliments of Weather Underground - 2.75 mb

Script developed by  Jim McMurry - jmcmurry@mwt.net Adapted for the template by  Wim van der Kuil - Leuven-Template.eu

Astronomy: Mercury can get as hot as 800 degrees and can be as cold as 300 degrees below zero.